Time;durP1;ratioP1;P1;durP2;ratioP2;P2;SDS_P1;SDS_P2;PMS_P1;PMS_P2;Temp;Humidity;BMP_temperature;BMP_pressure;BME280_temperature;BME280_humidity;BME280_pressure;Samples;Min_cycle;Max_cycle;Signal;HPM_P1;HPM_P2
2022/04/10 00:01:30;;;;;;;8.70;2.45;;;2.80;99.90;;;;;;5082710;28;20047;-77
2022/04/10 00:03:56;;;;;;;11.57;2.50;;;2.70;99.90;;;;;;5091892;28;20040;-77
2022/04/10 00:06:23;;;;;;;16.70;3.22;;;2.70;99.90;;;;;;5087795;28;20058;-77
2022/04/10 00:08:49;;;;;;;14.48;3.03;;;2.70;99.90;;;;;;5073501;28;20098;-77
2022/04/10 00:11:14;;;;;;;10.95;2.22;;;2.70;99.90;;;;;;5067464;28;20498;-77
2022/04/10 00:13:40;;;;;;;7.47;2.08;;;2.70;99.90;;;;;;5067562;28;20658;-76
2022/04/10 00:16:08;;;;;;;11.32;2.58;;;2.70;99.90;;;;;;5088028;28;20082;-77
2022/04/10 00:18:34;;;;;;;14.15;2.60;;;2.70;99.90;;;;;;5072328;28;20032;-77
2022/04/10 00:21:00;;;;;;;8.00;2.13;;;2.70;99.90;;;;;;5078173;28;20040;-77
2022/04/10 00:23:26;;;;;;;9.30;2.53;;;2.70;99.90;;;;;;5091670;28;20069;-77
2022/04/10 00:25:51;;;;;;;14.38;2.38;;;2.70;99.90;;;;;;5065659;28;20131;-77
2022/04/10 00:28:17;;;;;;;15.60;2.97;;;2.70;99.90;;;;;;5073168;28;20394;-77
2022/04/10 00:30:43;;;;;;;13.23;3.05;;;2.70;99.90;;;;;;5089132;28;20039;-77
2022/04/10 00:33:08;;;;;;;11.68;2.50;;;2.70;99.90;;;;;;5091213;28;20044;-77
2022/04/10 00:35:34;;;;;;;11.02;2.47;;;2.70;99.90;;;;;;5060152;28;20040;-77
2022/04/10 00:38:00;;;;;;;12.70;3.03;;;2.70;99.90;;;;;;5088519;28;20044;-77
2022/04/10 00:40:25;;;;;;;15.35;3.38;;;2.70;99.90;;;;;;5087820;28;20161;-77
2022/04/10 00:42:51;;;;;;;12.65;3.10;;;2.80;99.90;;;;;;5087850;28;20060;-77
2022/04/10 00:45:20;;;;;;;10.60;2.78;;;2.80;99.90;;;;;;5073555;28;20040;-77
2022/04/10 00:47:46;;;;;;;13.95;2.60;;;2.80;99.90;;;;;;5088704;28;20089;-77
2022/04/10 00:50:14;;;;;;;10.88;2.83;;;2.80;99.90;;;;;;5086882;28;20043;-77
2022/04/10 00:52:44;;;;;;;11.02;2.60;;;2.80;99.90;;;;;;5085267;28;20128;-77
2022/04/10 00:55:10;;;;;;;9.73;2.05;;;2.80;99.90;;;;;;5086883;28;20044;-77
2022/04/10 00:57:36;;;;;;;9.57;2.38;;;2.80;99.90;;;;;;5083921;28;20043;-77
2022/04/10 01:00:06;;;;;;;12.20;2.50;;;2.80;99.90;;;;;;5088321;28;20067;-77
2022/04/10 01:02:31;;;;;;;12.27;2.78;;;2.80;99.90;;;;;;5095219;28;20036;-77
2022/04/10 01:04:57;;;;;;;12.45;3.65;;;2.80;99.90;;;;;;5084759;28;20042;-77
2022/04/10 01:07:22;;;;;;;12.75;3.05;;;2.80;99.90;;;;;;5072534;28;20052;-77
2022/04/10 01:09:48;;;;;;;11.98;3.03;;;2.80;99.90;;;;;;5080658;28;20052;-77
2022/04/10 01:12:13;;;;;;;15.93;2.88;;;2.80;99.90;;;;;;5070133;28;20546;-77
2022/04/10 01:14:40;;;;;;;12.55;2.90;;;2.80;99.90;;;;;;5087963;28;20040;-77
2022/04/10 01:17:07;;;;;;;15.23;3.08;;;2.80;99.90;;;;;;5056275;28;20054;-77
2022/04/10 01:19:33;;;;;;;14.30;3.05;;;2.70;99.90;;;;;;5079761;28;20089;-77
2022/04/10 01:22:03;;;;;;;16.73;2.92;;;2.60;99.90;;;;;;5081377;28;20703;-77
2022/04/10 01:24:29;;;;;;;15.23;2.78;;;2.60;99.90;;;;;;5071376;28;20036;-77
2022/04/10 01:26:54;;;;;;;11.45;3.08;;;2.60;99.90;;;;;;5084989;28;20147;-78
2022/04/10 01:29:20;;;;;;;10.00;2.55;;;2.60;99.90;;;;;;5085320;28;20569;-76
2022/04/10 01:31:46;;;;;;;14.80;2.95;;;2.60;99.90;;;;;;5070734;28;20039;-76
2022/04/10 01:34:16;;;;;;;15.05;2.83;;;2.60;99.90;;;;;;5070703;28;20040;-77
2022/04/10 01:36:43;;;;;;;9.90;2.65;;;2.60;99.90;;;;;;5066433;28;20739;-77
2022/04/10 01:39:10;;;;;;;12.20;2.58;;;2.60;99.90;;;;;;5080609;28;20067;-77
2022/04/10 01:41:36;;;;;;;11.68;2.83;;;2.50;99.90;;;;;;5084558;28;20070;-77
2022/04/10 01:44:04;;;;;;;18.30;3.22;;;2.40;99.90;;;;;;5087344;28;20044;-77
2022/04/10 01:46:30;;;;;;;12.45;2.60;;;2.40;99.90;;;;;;5071995;28;20036;-77
2022/04/10 01:48:57;;;;;;;13.90;2.88;;;2.40;99.90;;;;;;5080679;28;21201;-77
2022/04/10 01:51:23;;;;;;;13.50;2.40;;;2.30;99.90;;;;;;5085700;28;20058;-77
2022/04/10 01:53:50;;;;;;;11.70;2.33;;;2.30;99.90;;;;;;5066616;28;20048;-77
2022/04/10 01:56:16;;;;;;;12.18;2.72;;;2.30;99.90;;;;;;5082199;28;20032;-77
2022/04/10 01:58:44;;;;;;;11.93;2.53;;;2.20;99.90;;;;;;5067423;28;20561;-77
2022/04/10 02:01:13;;;;;;;12.77;2.83;;;2.20;99.90;;;;;;5076426;28;20055;-77
2022/04/10 02:03:40;;;;;;;13.00;2.50;;;2.20;99.90;;;;;;5072754;28;20092;-77
2022/04/10 02:06:07;;;;;;;11.43;2.33;;;2.10;99.90;;;;;;5087436;28;20135;-77
2022/04/10 02:08:35;;;;;;;14.35;3.15;;;2.10;99.90;;;;;;5062296;28;20517;-77
2022/04/10 02:11:02;;;;;;;9.18;2.03;;;2.10;99.90;;;;;;5070757;28;20440;-76
2022/04/10 02:13:28;;;;;;;13.80;2.60;;;2.00;99.90;;;;;;5088853;28;20123;-77
2022/04/10 02:15:54;;;;;;;12.15;2.63;;;2.00;99.90;;;;;;5089373;28;20170;-77
2022/04/10 02:18:19;;;;;;;8.77;2.50;;;2.00;99.90;;;;;;5085828;28;20044;-76
2022/04/10 02:20:45;;;;;;;10.15;2.80;;;1.90;99.90;;;;;;5073250;28;20043;-77
2022/04/10 02:23:11;;;;;;;11.05;3.00;;;1.90;99.90;;;;;;5080289;28;20048;-77
2022/04/10 02:25:36;;;;;;;12.93;2.42;;;1.90;99.90;;;;;;5083864;28;20055;-77
2022/04/10 02:28:02;;;;;;;12.77;2.42;;;1.90;99.90;;;;;;5069902;28;20027;-77
2022/04/10 02:30:27;;;;;;;16.25;2.97;;;1.90;99.90;;;;;;5078115;28;20040;-77
2022/04/10 02:32:53;;;;;;;15.13;3.25;;;1.90;99.90;;;;;;5079756;28;20129;-77
2022/04/10 02:35:19;;;;;;;11.07;2.65;;;1.90;99.90;;;;;;5071215;28;20051;-78
2022/04/10 02:37:45;;;;;;;12.40;3.53;;;1.90;99.90;;;;;;5067345;28;21578;-78
2022/04/10 02:40:14;;;;;;;12.88;2.38;;;1.90;99.90;;;;;;5088351;28;20119;-77
2022/04/10 02:42:40;;;;;;;9.90;2.45;;;1.90;99.90;;;;;;5071404;28;20052;-77
2022/04/10 02:45:06;;;;;;;13.15;2.65;;;1.90;99.90;;;;;;5070670;28;20036;-78
2022/04/10 02:47:32;;;;;;;10.23;2.63;;;1.90;99.90;;;;;;5052888;28;20110;-78
2022/04/10 02:49:57;;;;;;;12.55;3.28;;;1.90;99.90;;;;;;5059753;28;20500;-78
2022/04/10 02:52:23;;;;;;;11.68;2.42;;;2.00;99.90;;;;;;5089613;28;20051;-77
2022/04/10 02:54:49;;;;;;;13.90;2.75;;;2.00;99.90;;;;;;5086950;28;20564;-77
2022/04/10 02:57:14;;;;;;;14.98;2.80;;;2.00;99.90;;;;;;5062282;28;20036;-77
2022/04/10 02:59:40;;;;;;;11.68;2.50;;;2.10;99.90;;;;;;5071423;28;20093;-77
2022/04/10 03:02:06;;;;;;;17.80;2.67;;;2.10;99.90;;;;;;5086278;28;20504;-77
2022/04/10 03:04:31;;;;;;;13.48;2.67;;;2.20;99.90;;;;;;5080777;28;20033;-77
2022/04/10 03:06:57;;;;;;;10.63;2.47;;;2.20;99.90;;;;;;5079077;28;20554;-77
2022/04/10 03:09:22;;;;;;;13.85;2.60;;;2.20;99.90;;;;;;5092559;28;20123;-77
2022/04/10 03:11:48;;;;;;;10.63;2.80;;;2.30;99.90;;;;;;5091460;28;20082;-77
2022/04/10 03:14:14;;;;;;;9.88;2.42;;;2.40;99.90;;;;;;5076255;28;20504;-78
2022/04/10 03:16:39;;;;;;;13.50;3.47;;;2.40;99.90;;;;;;5093389;28;20433;-78
2022/04/10 03:19:05;;;;;;;12.00;2.83;;;2.40;99.90;;;;;;5093343;28;20036;-77
2022/04/10 03:21:49;;;;;;;10.85;2.33;;;2.50;99.90;;;;;;5093468;28;20036;-77
2022/04/10 03:24:14;;;;;;;10.77;2.40;;;2.60;99.90;;;;;;5092718;28;20658;-77
2022/04/10 03:26:40;;;;;;;8.93;2.13;;;2.60;99.90;;;;;;5077303;28;20059;-77
2022/04/10 03:29:05;;;;;;;10.15;2.45;;;2.70;99.90;;;;;;5065196;28;20044;-77
2022/04/10 03:31:31;;;;;;;10.90;1.98;;;2.70;99.90;;;;;;5066559;28;20036;-77
2022/04/10 03:33:57;;;;;;;12.43;2.60;;;2.70;99.90;;;;;;5073365;28;20048;-77
2022/04/10 03:36:22;;;;;;;10.15;2.22;;;2.80;99.90;;;;;;5084084;28;20028;-77
2022/04/10 03:38:48;;;;;;;7.80;1.80;;;2.80;99.90;;;;;;5091006;28;20032;-77
2022/04/10 03:41:13;;;;;;;8.10;1.98;;;2.80;99.90;;;;;;5082025;28;20048;-77
2022/04/10 03:43:39;;;;;;;8.55;1.90;;;2.80;99.90;;;;;;5078941;28;20032;-77
2022/04/10 03:46:05;;;;;;;11.32;2.10;;;2.80;99.90;;;;;;5079402;28;20101;-78
2022/04/10 03:48:30;;;;;;;10.75;1.98;;;2.90;99.90;;;;;;5075626;28;20044;-77
2022/04/10 03:50:56;;;;;;;7.55;2.10;;;2.90;99.90;;;;;;5081888;28;20051;-77
2022/04/10 03:53:21;;;;;;;6.60;1.85;;;2.90;99.90;;;;;;5075182;28;20541;-77
2022/04/10 03:55:47;;;;;;;8.25;1.98;;;3.00;99.90;;;;;;5065835;28;20028;-77
2022/04/10 03:58:14;;;;;;;5.95;1.50;;;3.10;99.90;;;;;;5069221;28;20035;-77
2022/04/10 04:00:40;;;;;;;4.97;1.23;;;3.20;99.90;;;;;;5078120;28;20032;-77
2022/04/10 04:03:05;;;;;;;6.47;1.60;;;3.30;99.90;;;;;;5102885;28;20051;-76
2022/04/10 04:05:31;;;;;;;9.55;2.40;;;3.30;99.90;;;;;;5103169;28;20036;-77
2022/04/10 04:07:56;;;;;;;9.07;1.70;;;3.40;99.90;;;;;;5104960;28;20062;-78
2022/04/10 04:10:22;;;;;;;9.13;1.60;;;3.40;99.90;;;;;;5075697;28;20056;-77
2022/04/10 04:12:48;;;;;;;4.90;1.35;;;3.40;99.90;;;;;;5088260;28;20044;-77
2022/04/10 04:15:13;;;;;;;7.55;1.70;;;3.40;99.90;;;;;;5088136;28;20032;-77
2022/04/10 04:17:39;;;;;;;8.93;1.70;;;3.40;99.90;;;;;;5085568;28;20036;-77
2022/04/10 04:20:06;;;;;;;4.68;1.73;;;3.50;99.90;;;;;;5089335;28;20056;-77
2022/04/10 04:22:32;;;;;;;4.15;1.35;;;3.50;99.90;;;;;;5086262;28;20028;-77
2022/04/10 04:24:57;;;;;;;5.20;1.27;;;3.50;99.90;;;;;;5066218;28;20475;-77
2022/04/10 04:27:23;;;;;;;4.65;1.20;;;3.40;99.90;;;;;;5087556;28;20036;-77
2022/04/10 04:29:48;;;;;;;6.13;1.42;;;3.40;99.90;;;;;;5078316;28;20043;-77
2022/04/10 04:32:14;;;;;;;7.43;1.30;;;3.30;99.90;;;;;;5088573;28;20036;-77
2022/04/10 04:34:39;;;;;;;8.63;1.52;;;3.20;99.90;;;;;;5082574;28;20048;-76
2022/04/10 04:37:05;;;;;;;5.30;1.20;;;3.10;99.90;;;;;;5077338;28;20043;-76
2022/04/10 04:39:30;;;;;;;3.72;1.30;;;3.00;99.90;;;;;;5088923;28;20043;-77
2022/04/10 04:41:56;;;;;;;5.13;1.52;;;2.90;99.90;;;;;;5062353;28;20112;-77
2022/04/10 04:44:23;;;;;;;6.30;1.33;;;2.90;99.90;;;;;;5089021;28;20035;-77
2022/04/10 04:46:48;;;;;;;6.97;1.60;;;2.90;99.90;;;;;;5071459;28;20150;-77
2022/04/10 04:49:14;;;;;;;5.22;1.00;;;2.80;99.90;;;;;;5071687;28;20059;-77
2022/04/10 04:51:39;;;;;;;4.38;1.00;;;2.80;99.90;;;;;;5083333;28;20046;-77
2022/04/10 04:54:08;;;;;;;5.53;1.13;;;2.80;99.90;;;;;;5074591;28;20143;-77
2022/04/10 04:56:34;;;;;;;7.55;1.20;;;2.70;99.90;;;;;;5071014;28;20040;-77
2022/04/10 04:58:59;;;;;;;7.25;0.90;;;2.70;99.90;;;;;;5086787;28;20059;-77
2022/04/10 05:01:25;;;;;;;5.65;1.20;;;2.70;99.90;;;;;;5092655;28;20043;-76
2022/04/10 05:03:51;;;;;;;8.25;1.23;;;2.80;99.90;;;;;;5107409;28;20051;-76
2022/04/10 05:06:17;;;;;;;7.60;1.20;;;2.70;99.90;;;;;;5089491;28;20053;-77
2022/04/10 05:08:46;;;;;;;5.82;1.23;;;2.70;99.90;;;;;;5071075;28;20071;-77
2022/04/10 05:11:14;;;;;;;7.68;1.58;;;2.70;99.90;;;;;;5090221;28;20039;-78
2022/04/10 05:13:41;;;;;;;4.68;1.20;;;2.70;99.90;;;;;;5086197;28;20036;-76
2022/04/10 05:16:07;;;;;;;3.47;0.95;;;2.80;99.90;;;;;;5065016;28;20093;-77
2022/04/10 05:18:33;;;;;;;5.00;1.58;;;2.80;99.90;;;;;;5081697;28;20032;-76
2022/04/10 05:20:59;;;;;;;5.55;1.15;;;2.90;99.90;;;;;;5074020;28;20041;-78
2022/04/10 05:23:25;;;;;;;5.68;1.20;;;2.90;99.90;;;;;;5084348;28;20036;-77
2022/04/10 05:25:50;;;;;;;4.80;1.20;;;3.00;99.90;;;;;;5089901;28;20075;-77
2022/04/10 05:28:16;;;;;;;4.93;1.27;;;3.10;99.90;;;;;;5085309;28;20040;-77
2022/04/10 05:30:43;;;;;;;6.60;1.40;;;3.00;99.90;;;;;;5088240;28;20122;-77
2022/04/10 05:33:09;;;;;;;7.50;1.42;;;3.20;99.90;;;;;;5084816;28;20412;-76
2022/04/10 05:35:35;;;;;;;5.35;1.50;;;3.30;99.90;;;;;;5083160;28;20036;-77
2022/04/10 05:38:01;;;;;;;7.82;1.63;;;3.40;99.90;;;;;;5083767;28;21557;-77
2022/04/10 05:40:26;;;;;;;6.50;1.83;;;3.40;99.90;;;;;;5089499;28;20036;-78
2022/04/10 05:42:52;;;;;;;3.70;1.10;;;3.40;99.90;;;;;;5087942;28;20119;-77
2022/04/10 05:45:18;;;;;;;6.65;1.50;;;3.50;99.90;;;;;;5088081;28;20083;-77
2022/04/10 05:47:44;;;;;;;5.80;1.30;;;3.50;99.90;;;;;;5067187;28;20067;-77
2022/04/10 05:50:10;;;;;;;4.63;1.35;;;3.60;99.90;;;;;;5082692;28;20128;-77
2022/04/10 05:52:43;;;;;;;5.95;1.50;;;3.80;99.90;;;;;;5084579;28;20048;-77
2022/04/10 05:55:10;;;;;;;6.03;1.10;;;4.30;99.90;;;;;;5077498;28;20475;-77
2022/04/10 05:57:35;;;;;;;10.43;1.55;;;5.40;99.90;;;;;;5087228;28;20148;-77
2022/04/10 06:00:05;;;;;;;8.68;1.80;;;6.50;99.90;;;;;;5087250;28;20048;-78
2022/04/10 06:02:31;;;;;;;30.38;2.22;;;7.30;99.90;;;;;;5087392;28;20047;-78
2022/04/10 06:04:57;;;;;;;4.85;1.35;;;8.10;99.90;;;;;;5089356;28;20405;-77
2022/04/10 06:07:23;;;;;;;4.75;1.13;;;8.90;99.90;;;;;;5088820;28;20058;-78
2022/04/10 06:09:48;;;;;;;4.35;1.20;;;9.50;99.90;;;;;;5094799;28;20051;-78
2022/04/10 06:12:14;;;;;;;4.07;1.20;;;10.10;99.90;;;;;;5088036;28;20696;-78
2022/04/10 06:14:39;;;;;;;18.27;1.83;;;10.90;99.90;;;;;;5087647;28;20385;-78
2022/04/10 06:17:07;;;;;;;3.28;1.05;;;11.50;99.90;;;;;;5088478;28;20127;-78
2022/04/10 06:19:33;;;;;;;3.72;0.90;;;11.30;99.90;;;;;;5089267;28;20051;-78
2022/04/10 06:21:58;;;;;;;11.30;1.50;;;10.30;99.90;;;;;;5080722;22;20052;-83
2022/04/10 06:24:24;;;;;;;4.10;1.13;;;9.60;99.90;;;;;;5050824;28;20398;-83
2022/04/10 06:26:49;;;;;;;5.78;1.10;;;9.70;99.90;;;;;;5031905;28;20091;-83
2022/04/10 06:29:16;;;;;;;3.83;1.15;;;9.10;99.90;;;;;;5034344;28;20402;-82
2022/04/10 06:31:42;;;;;;;5.70;1.35;;;8.40;99.90;;;;;;5033837;28;20045;-83
2022/04/10 06:34:07;;;;;;;4.72;1.48;;;7.70;99.90;;;;;;5044832;28;20067;-82
2022/04/10 06:36:33;;;;;;;6.93;1.02;;;8.00;99.90;;;;;;5035030;28;20037;-83
2022/04/10 06:38:58;;;;;;;10.90;1.30;;;9.20;99.90;;;;;;5034858;28;20482;-83
2022/04/10 06:41:24;;;;;;;5.95;1.00;;;9.20;99.90;;;;;;5052904;28;20048;-83
2022/04/10 06:43:49;;;;;;;5.50;1.02;;;8.90;99.90;;;;;;5054967;28;20041;-82
2022/04/10 06:46:15;;;;;;;5.57;0.90;;;8.90;99.90;;;;;;5054784;28;20041;-83
2022/04/10 06:48:41;;;;;;;8.13;1.55;;;8.70;99.90;;;;;;5038187;28;20426;-82
2022/04/10 06:51:06;;;;;;;4.72;1.10;;;8.30;99.90;;;;;;5055198;28;20375;-83
2022/04/10 06:53:32;;;;;;;5.78;1.27;;;7.80;99.90;;;;;;5055641;28;20053;-82
2022/04/10 06:55:57;;;;;;;6.22;1.58;;;7.40;99.90;;;;;;5055307;28;20041;-83
2022/04/10 06:58:23;;;;;;;6.90;1.55;;;7.20;99.90;;;;;;5038647;28;20120;-82
2022/04/10 07:00:49;;;;;;;5.35;1.00;;;6.60;99.90;;;;;;5054675;28;20065;-83
2022/04/10 07:03:15;;;;;;;5.90;1.25;;;6.20;99.90;;;;;;5055704;28;20052;-83
2022/04/10 07:05:41;;;;;;;5.93;1.33;;;5.50;99.90;;;;;;5054677;28;20124;-83
2022/04/10 07:08:07;;;;;;;6.47;1.38;;;5.30;99.90;;;;;;5054385;28;20120;-82
2022/04/10 07:10:33;;;;;;;3.33;1.13;;;5.30;99.90;;;;;;5038400;28;20350;-82
2022/04/10 07:12:59;;;;;;;8.13;1.63;;;5.20;99.90;;;;;;5054776;28;20109;-82
2022/04/10 07:15:24;;;;;;;4.40;1.38;;;5.20;99.90;;;;;;5037991;28;20072;-84
2022/04/10 07:17:51;;;;;;;4.97;1.40;;;6.20;99.90;;;;;;5038551;28;20033;-83
2022/04/10 07:20:16;;;;;;;7.82;1.45;;;7.80;99.90;;;;;;5055068;28;20036;-83
2022/04/10 07:25:29;;;;;;;5.22;1.38;;;10.70;99.90;;;;;;5048564;28;20041;-83
2022/04/10 07:27:54;;;;;;;4.40;1.23;;;11.90;99.90;;;;;;5054789;28;20049;-83
2022/04/10 07:30:20;;;;;;;5.82;1.15;;;13.00;99.90;;;;;;5054317;28;20146;-83
2022/04/10 07:32:53;;;;;;;5.57;1.50;;;13.90;99.90;;;;;;5038432;28;20091;-82
2022/04/10 07:35:19;;;;;;;3.03;1.00;;;14.40;99.90;;;;;;5055293;28;20041;-83
2022/04/10 07:37:46;;;;;;;8.18;1.55;;;13.10;98.90;;;;;;5040268;28;20500;-82
2022/04/10 07:40:12;;;;;;;5.60;1.30;;;13.00;99.90;;;;;;5054387;28;20119;-82
2022/04/10 07:42:43;;;;;;;6.25;1.50;;;13.30;99.90;;;;;;5053581;28;20064;-82
2022/04/10 07:45:10;;;;;;;5.28;1.55;;;13.60;99.90;;;;;;5053273;28;20033;-83
2022/04/10 07:47:36;;;;;;;5.68;1.48;;;13.40;99.90;;;;;;5049038;28;20837;-82
2022/04/10 07:50:02;;;;;;;5.80;1.23;;;12.70;98.90;;;;;;5034210;28;20497;-82
2022/04/10 07:52:28;;;;;;;4.82;1.00;;;12.10;99.90;;;;;;5034370;28;20382;-83
2022/04/10 07:54:54;;;;;;;6.78;1.40;;;11.60;99.90;;;;;;5054345;28;20041;-83
2022/04/10 07:57:20;;;;;;;4.60;1.33;;;11.10;99.90;;;;;;5054017;28;20040;-83
2022/04/10 07:59:45;;;;;;;7.40;1.27;;;10.60;99.90;;;;;;5047754;28;20045;-84
2022/04/10 08:02:11;;;;;;;6.60;1.50;;;10.20;99.90;;;;;;5040243;28;20044;-83
2022/04/10 08:04:37;;;;;;;6.97;1.17;;;9.70;99.90;;;;;;5053975;28;20041;-82
2022/04/10 08:07:03;;;;;;;8.00;1.92;;;9.20;99.90;;;;;;5017915;28;20045;-83
2022/04/10 08:09:29;;;;;;;9.55;2.53;;;8.90;99.90;;;;;;5034660;28;20052;-82
2022/04/10 08:11:54;;;;;;;4.22;1.35;;;8.90;99.90;;;;;;5054648;28;20037;-82
2022/04/10 08:14:20;;;;;;;6.53;1.30;;;8.60;99.90;;;;;;5054099;28;20532;-83
2022/04/10 08:16:46;;;;;;;7.07;1.45;;;8.30;99.90;;;;;;5037222;28;20490;-83
2022/04/10 08:19:12;;;;;;;5.35;1.20;;;8.40;99.90;;;;;;5040413;28;20029;-82
2022/04/10 08:21:38;;;;;;;4.63;1.35;;;8.40;99.90;;;;;;5054024;28;20056;-83
2022/04/10 08:24:04;;;;;;;6.45;1.52;;;8.40;99.90;;;;;;5049445;28;20046;-82
2022/04/10 08:26:32;;;;;;;5.07;1.80;;;8.30;99.90;;;;;;5050659;28;20077;-82
2022/04/10 08:28:57;;;;;;;7.80;1.60;;;8.40;99.90;;;;;;5053678;28;20424;-83
2022/04/10 08:31:24;;;;;;;5.82;1.65;;;8.60;99.90;;;;;;5048314;28;20087;-82
2022/04/10 08:33:51;;;;;;;4.00;1.00;;;8.60;99.90;;;;;;5033835;28;20048;-84
2022/04/10 08:36:17;;;;;;;8.55;2.05;;;8.70;99.90;;;;;;5034998;28;20757;-83
2022/04/10 08:38:42;;;;;;;4.90;1.40;;;8.60;99.90;;;;;;5046648;28;20036;-83
2022/04/10 08:41:09;;;;;;;6.82;1.45;;;8.60;99.90;;;;;;5036036;28;20045;-83
2022/04/10 08:43:35;;;;;;;5.65;1.48;;;8.90;99.90;;;;;;5066223;28;20124;-83
2022/04/10 08:46:02;;;;;;;4.35;1.00;;;9.10;99.90;;;;;;5053583;28;20045;-83
2022/04/10 08:48:29;;;;;;;6.70;1.35;;;9.00;99.90;;;;;;5031518;28;20076;-84
2022/04/10 08:50:57;;;;;;;6.85;1.27;;;8.90;99.90;;;;;;5033566;28;20041;-84
2022/04/10 08:53:27;;;;;;;6.75;1.08;;;8.90;99.90;;;;;;5016979;28;20045;-83
2022/04/10 08:55:54;;;;;;;7.57;1.83;;;9.30;99.90;;;;;;5050742;28;20190;-83
2022/04/10 08:58:20;;;;;;;6.95;1.58;;;9.30;99.90;;;;;;5036565;28;20037;-83
2022/04/10 09:00:46;;;;;;;8.25;1.40;;;9.40;99.90;;;;;;5052866;28;20052;-83
2022/04/10 09:03:12;;;;;;;4.97;1.25;;;9.60;99.90;;;;;;5036683;28;20141;-83
2022/04/10 09:05:40;;;;;;;7.32;1.77;;;9.60;99.90;;;;;;5048878;28;20441;-83
2022/04/10 09:08:08;;;;;;;11.13;2.20;;;9.30;99.90;;;;;;5054504;28;20041;-84
2022/04/10 09:10:54;;;;;;;5.30;1.30;;;9.20;99.90;;;;;;5034365;28;20052;-83
2022/04/10 09:13:31;;;;;;;7.63;1.30;;;8.90;99.90;;;;;;5025528;28;20073;-83
2022/04/10 09:16:08;;;;;;;7.07;1.50;;;9.10;99.90;;;;;;5051645;28;20037;-83
2022/04/10 09:19:01;;;;;;;7.40;1.42;;;9.00;99.90;;;;;;5053217;28;20409;-85
2022/04/10 09:21:33;;;;;;;5.78;1.20;;;9.50;99.90;;;;;;5052821;28;20110;-83
2022/04/10 09:24:11;;;;;;;7.53;1.30;;;9.70;99.90;;;;;;5033406;28;20060;-83
2022/04/10 09:26:51;;;;;;;6.15;1.30;;;9.70;99.90;;;;;;5035821;28;20041;-83
2022/04/10 09:29:18;;;;;;;5.35;1.20;;;9.80;99.90;;;;;;5023110;28;20053;-84
2022/04/10 09:31:44;;;;;;;6.28;1.85;;;10.00;99.90;;;;;;5037497;28;20119;-83
2022/04/10 09:34:15;;;;;;;6.53;1.55;;;10.00;99.00;;;;;;5052641;28;20116;-83
2022/04/10 09:36:47;;;;;;;6.60;1.48;;;9.50;96.30;;;;;;5035205;28;20120;-84
2022/04/10 09:39:29;;;;;;;2.70;0.90;;;9.40;96.90;;;;;;5036041;28;20069;-83
2022/04/10 09:42:02;;;;;;;6.70;1.40;;;9.40;95.20;;;;;;5045858;28;20383;-83
2022/04/10 09:44:32;;;;;;;4.63;1.20;;;9.60;99.10;;;;;;5039297;28;20110;-83
2022/04/10 09:47:06;;;;;;;2.80;0.80;;;9.40;95.60;;;;;;5050491;28;20053;-84
2022/04/10 09:49:36;;;;;;;4.88;0.77;;;9.50;99.40;;;;;;5052501;28;20036;-83
2022/04/10 09:52:09;;;;;;;2.33;0.80;;;9.70;99.60;;;;;;5052086;28;20037;-82
2022/04/10 09:54:41;;;;;;;5.32;1.10;;;9.80;99.90;;;;;;5046758;28;20056;-82
2022/04/10 09:57:11;;;;;;;2.47;1.00;;;9.80;99.90;;;;;;5035980;28;20044;-82
2022/04/10 09:59:40;;;;;;;4.57;0.90;;;9.90;96.60;;;;;;5018845;28;20033;-80
2022/04/10 10:02:07;;;;;;;5.20;0.90;;;10.00;97.00;;;;;;5056772;28;20042;-81
2022/04/10 10:04:37;;;;;;;3.75;1.20;;;10.20;99.40;;;;;;5056955;28;20051;-82
2022/04/10 10:07:05;;;;;;;5.10;1.50;;;10.30;99.90;;;;;;5019964;28;20033;-82
2022/04/10 10:09:32;;;;;;;6.90;1.30;;;10.40;99.70;;;;;;5051396;28;20044;-81
2022/04/10 10:12:00;;;;;;;4.38;1.20;;;10.60;99.10;;;;;;5052253;28;20052;-81
2022/04/10 10:14:28;;;;;;;7.35;1.52;;;10.40;96.00;;;;;;5052051;28;20059;-81
2022/04/10 10:16:55;;;;;;;8.00;1.50;;;10.40;97.40;;;;;;5041967;28;20041;-82
2022/04/10 10:19:22;;;;;;;4.30;1.30;;;10.40;99.90;;;;;;5053562;28;20067;-82
2022/04/10 10:21:48;;;;;;;5.85;1.48;;;10.30;99.50;;;;;;5025504;28;20064;-82
2022/04/10 10:24:15;;;;;;;5.85;1.60;;;10.10;99.90;;;;;;5031839;28;20053;-82
2022/04/10 10:27:02;;;;;;;7.15;1.45;;;10.20;99.90;;;;;;5036400;28;20045;-82
2022/04/10 10:29:52;;;;;;;6.53;1.17;;;10.10;99.90;;;;;;5032666;28;20498;-82
2022/04/10 10:32:39;;;;;;;5.35;1.13;;;10.20;99.90;;;;;;5038161;28;20072;-82
2022/04/10 10:35:06;;;;;;;5.35;1.48;;;10.50;99.90;;;;;;5020791;28;20474;-81
2022/04/10 10:37:48;;;;;;;8.50;1.48;;;10.80;99.90;;;;;;5035531;28;20047;-82
2022/04/10 10:40:17;;;;;;;5.03;1.37;;;10.90;99.00;;;;;;5052920;28;20045;-82
2022/04/10 10:42:44;;;;;;;6.13;1.50;;;11.10;99.70;;;;;;5031932;28;20033;-81
2022/04/10 10:45:10;;;;;;;5.75;1.55;;;11.30;99.30;;;;;;5048208;28;20052;-81
2022/04/10 10:47:35;;;;;;;6.57;1.60;;;11.20;95.70;;;;;;5038609;28;20041;-81
2022/04/10 10:50:25;;;;;;;6.43;1.35;;;11.30;98.20;;;;;;5031953;28;20041;-82
2022/04/10 10:53:06;;;;;;;5.65;1.13;;;11.50;98.20;;;;;;5051619;28;20099;-81
2022/04/10 10:55:44;;;;;;;7.00;1.50;;;11.50;96.50;;;;;;5029135;28;20037;-82
2022/04/10 10:58:14;;;;;;;7.13;1.58;;;11.60;98.20;;;;;;5051842;28;20107;-82
2022/04/10 11:00:39;;;;;;;4.82;1.02;;;11.40;98.00;;;;;;5045979;28;20041;-81
2022/04/10 11:03:09;;;;;;;9.00;1.48;;;11.10;98.30;;;;;;5051665;28;20041;-82
2022/04/10 11:05:36;;;;;;;5.60;1.38;;;10.70;98.50;;;;;;5036524;28;20049;-76
2022/04/10 11:08:01;;;;;;;4.95;1.13;;;10.60;99.90;;;;;;5039879;28;20087;-77
2022/04/10 11:10:29;;;;;;;5.65;1.33;;;10.40;99.20;;;;;;5048262;28;20037;-76
2022/04/10 11:13:09;;;;;;;5.75;1.48;;;10.50;97.80;;;;;;5027864;28;20207;-76
2022/04/10 11:15:49;;;;;;;8.02;1.33;;;10.70;99.30;;;;;;5044806;28;20041;-77
2022/04/10 11:18:23;;;;;;;5.90;1.23;;;10.70;98.90;;;;;;5044730;28;20124;-77
2022/04/10 11:20:53;;;;;;;4.38;1.23;;;11.00;99.90;;;;;;5020624;28;20095;-76
2022/04/10 11:23:19;;;;;;;6.78;1.70;;;11.20;99.00;;;;;;5044555;28;20470;-77
2022/04/10 11:25:52;;;;;;;7.63;1.40;;;11.40;99.00;;;;;;5031722;28;20052;-77
2022/04/10 11:28:17;;;;;;;6.72;1.50;;;11.40;97.70;;;;;;5047012;28;20036;-76
2022/04/10 11:30:45;;;;;;;6.15;1.20;;;11.00;98.40;;;;;;5051991;28;20037;-76
2022/04/10 11:33:13;;;;;;;4.57;1.67;;;10.70;97.30;;;;;;5036290;28;20142;-76
2022/04/10 11:35:40;;;;;;;4.97;1.58;;;10.00;95.30;;;;;;5035394;28;20033;-76
2022/04/10 11:38:07;;;;;;;6.32;1.25;;;10.10;99.90;;;;;;5033485;28;20228;-77
2022/04/10 11:40:35;;;;;;;5.40;1.15;;;10.00;99.30;;;;;;5048924;28;20324;-77
2022/04/10 11:43:02;;;;;;;5.90;1.17;;;10.00;99.90;;;;;;5052428;28;20594;-77
2022/04/10 11:45:30;;;;;;;5.32;1.95;;;10.40;99.90;;;;;;5051213;28;20049;-76
2022/04/10 11:47:56;;;;;;;7.97;1.38;;;10.60;96.10;;;;;;5051780;28;20040;-76
2022/04/10 11:50:27;;;;;;;5.50;1.40;;;11.00;99.80;;;;;;5035206;28;20072;-76
2022/04/10 11:53:08;;;;;;;7.38;1.55;;;11.10;98.20;;;;;;5052268;28;20045;-77
2022/04/10 11:55:41;;;;;;;4.28;1.20;;;10.90;93.30;;;;;;5048208;28;20068;-76
2022/04/10 11:58:21;;;;;;;5.35;1.45;;;11.20;97.00;;;;;;5049614;28;20098;-76
2022/04/10 12:00:51;;;;;;;7.47;1.60;;;11.60;97.80;;;;;;5050832;28;20064;-76
2022/04/10 12:03:21;;;;;;;6.43;1.73;;;11.60;96.70;;;;;;5045828;28;20046;-77
2022/04/10 12:05:47;;;;;;;4.07;1.50;;;11.60;94.90;;;;;;5045576;28;20113;-77
2022/04/10 12:08:13;;;;;;;5.55;1.10;;;11.40;94.90;;;;;;5057849;28;20051;-76
2022/04/10 12:10:39;;;;;;;5.22;1.58;;;11.40;95.10;;;;;;5049478;28;20086;-76
2022/04/10 12:13:05;;;;;;;4.05;1.10;;;11.30;96.20;;;;;;5042708;28;20041;-76
2022/04/10 12:15:32;;;;;;;8.55;2.05;;;11.20;93.80;;;;;;5061148;28;20040;-76
2022/04/10 12:18:10;;;;;;;5.13;1.27;;;11.10;95.20;;;;;;5049577;28;20501;-76
2022/04/10 12:20:37;;;;;;;5.03;1.17;;;11.40;96.20;;;;;;5049158;28;20044;-76
2022/04/10 12:23:26;;;;;;;5.95;1.27;;;11.60;95.30;;;;;;5048976;28;20563;-76
2022/04/10 12:25:54;;;;;;;3.47;1.02;;;11.70;92.20;;;;;;5048246;28;20052;-76
2022/04/10 12:28:21;;;;;;;3.88;0.80;;;12.00;95.50;;;;;;5046381;28;20041;-76
2022/04/10 12:30:48;;;;;;;3.80;0.80;;;11.80;95.10;;;;;;5031007;28;20056;-76
2022/04/10 12:33:14;;;;;;;3.83;1.02;;;11.80;93.30;;;;;;5048291;28;20053;-76
2022/04/10 12:35:43;;;;;;;4.80;1.00;;;11.50;91.00;;;;;;5049838;28;20506;-76
2022/04/10 12:38:10;;;;;;;3.85;1.10;;;11.60;91.70;;;;;;5045498;28;20041;-76
2022/04/10 12:40:36;;;;;;;4.28;1.10;;;11.30;90.10;;;;;;5044295;28;20032;-76
2022/04/10 12:43:04;;;;;;;4.00;1.20;;;11.50;92.90;;;;;;5048978;28;20483;-76
2022/04/10 12:45:32;;;;;;;5.15;1.13;;;11.40;94.10;;;;;;5049212;28;20036;-76
2022/04/10 12:47:59;;;;;;;4.25;0.90;;;11.30;90.50;;;;;;5052972;28;20128;-76
2022/04/10 12:50:26;;;;;;;5.25;0.80;;;11.50;90.90;;;;;;5046995;28;20053;-76
2022/04/10 12:52:52;;;;;;;3.28;0.93;;;11.50;90.60;;;;;;5048815;28;20041;-76
2022/04/10 12:55:26;;;;;;;4.55;1.00;;;11.20;82.60;;;;;;5022831;28;20053;-76